sensor_id;sensor_type;location;lat;lon;timestamp;pressure;altitude;pressure_sealevel;temperature;humidity
12801;BME280;6464;42.494;27.470;2023-04-23T04:05:08;97485.69;;;6.90;100.00
12801;BME280;6464;42.494;27.470;2023-04-23T04:10:23;97522.69;;;7.00;100.00
12801;BME280;6464;42.494;27.470;2023-04-23T04:15:42;97551.63;;;7.76;100.00
12801;BME280;6464;42.494;27.470;2023-04-23T04:21:25;97564.47;;;7.81;100.00
12801;BME280;6464;42.494;27.470;2023-04-23T04:23:55;97736.59;;;7.83;100.00
12801;BME280;6464;42.494;27.470;2023-04-23T04:26:24;97761.72;;;8.19;100.00
12801;BME280;6464;42.494;27.470;2023-04-23T04:28:58;97572.28;;;7.35;100.00
12801;BME280;6464;42.494;27.470;2023-04-23T04:31:35;97623.66;;;7.55;100.00
12801;BME280;6464;42.494;27.470;2023-04-23T04:34:10;97769.91;;;8.44;100.00
12801;BME280;6464;42.494;27.470;2023-04-23T04:37:03;97652.50;;;7.06;100.00
12801;BME280;6464;42.494;27.470;2023-04-23T04:39:47;97923.84;;;8.14;100.00
12801;BME280;6464;42.494;27.470;2023-04-23T04:42:26;97745.81;;;7.26;100.00
12801;BME280;6464;42.494;27.470;2023-04-23T04:44:57;97731.88;;;7.08;100.00
12801;BME280;6464;42.494;27.470;2023-04-23T04:47:40;97775.63;;;7.06;100.00
12801;BME280;6464;42.494;27.470;2023-04-23T04:50:22;97753.16;;;7.35;100.00
12801;BME280;6464;42.494;27.470;2023-04-23T04:58:17;97933.41;;;7.82;100.00
12801;BME280;6464;42.494;27.470;2023-04-23T05:01:04;97904.28;;;7.36;100.00
12801;BME280;6464;42.494;27.470;2023-04-23T05:06:24;98008.41;;;7.15;100.00
12801;BME280;6464;42.494;27.470;2023-04-23T05:12:01;97998.00;;;7.13;100.00
12801;BME280;6464;42.494;27.470;2023-04-23T05:22:47;97908.59;;;8.05;100.00
12801;BME280;6464;42.494;27.470;2023-04-23T05:25:14;98057.94;;;7.38;100.00
12801;BME280;6464;42.494;27.470;2023-04-23T05:27:42;98162.97;;;7.90;100.00
12801;BME280;6464;42.494;27.470;2023-04-23T05:30:11;98132.69;;;7.66;100.00
12801;BME280;6464;42.494;27.470;2023-04-23T05:32:39;98309.50;;;8.37;100.00
12801;BME280;6464;42.494;27.470;2023-04-23T05:35:07;98215.53;;;7.89;100.00
12801;BME280;6464;42.494;27.470;2023-04-23T05:37:44;98264.00;;;8.18;100.00
12801;BME280;6464;42.494;27.470;2023-04-23T05:40:17;98372.34;;;8.40;100.00
12801;BME280;6464;42.494;27.470;2023-04-23T05:42:46;98395.53;;;8.68;100.00
12801;BME280;6464;42.494;27.470;2023-04-23T05:45:13;98384.50;;;8.43;100.00
12801;BME280;6464;42.494;27.470;2023-04-23T05:47:41;98530.47;;;9.41;100.00
12801;BME280;6464;42.494;27.470;2023-04-23T05:50:10;98588.66;;;9.35;100.00
12801;BME280;6464;42.494;27.470;2023-04-23T05:52:37;98557.69;;;8.66;100.00
12801;BME280;6464;42.494;27.470;2023-04-23T05:55:06;98596.59;;;8.77;100.00
12801;BME280;6464;42.494;27.470;2023-04-23T05:57:37;98712.94;;;9.59;100.00
12801;BME280;6464;42.494;27.470;2023-04-23T06:00:06;98621.63;;;8.86;100.00
12801;BME280;6464;42.494;27.470;2023-04-23T06:02:36;98681.53;;;8.78;100.00
12801;BME280;6464;42.494;27.470;2023-04-23T06:05:06;98677.31;;;8.94;100.00
12801;BME280;6464;42.494;27.470;2023-04-23T06:07:35;98656.75;;;8.83;100.00
12801;BME280;6464;42.494;27.470;2023-04-23T06:10:03;98870.53;;;10.04;100.00
12801;BME280;6464;42.494;27.470;2023-04-23T06:12:31;98669.31;;;8.97;100.00
12801;BME280;6464;42.494;27.470;2023-04-23T06:14:59;98896.75;;;9.68;100.00
12801;BME280;6464;42.494;27.470;2023-04-23T06:17:30;98897.25;;;9.56;100.00
12801;BME280;6464;42.494;27.470;2023-04-23T06:19:59;98799.44;;;8.87;100.00
12801;BME280;6464;42.494;27.470;2023-04-23T06:22:28;98812.81;;;9.42;100.00
12801;BME280;6464;42.494;27.470;2023-04-23T06:25:00;98974.28;;;10.21;100.00
12801;BME280;6464;42.494;27.470;2023-04-23T06:27:29;98858.50;;;8.98;100.00
12801;BME280;6464;42.494;27.470;2023-04-23T06:30:05;98943.31;;;9.87;100.00
12801;BME280;6464;42.494;27.470;2023-04-23T06:32:33;98994.06;;;10.31;100.00
12801;BME280;6464;42.494;27.470;2023-04-23T06:35:01;98836.75;;;9.36;100.00
12801;BME280;6464;42.494;27.470;2023-04-23T06:37:33;98816.66;;;9.35;100.00
12801;BME280;6464;42.494;27.470;2023-04-23T06:40:01;98919.38;;;10.12;100.00
12801;BME280;6464;42.494;27.470;2023-04-23T06:42:29;98878.78;;;9.37;100.00
12801;BME280;6464;42.494;27.470;2023-04-23T06:44:59;98934.03;;;8.95;100.00
12801;BME280;6464;42.494;27.470;2023-04-23T06:47:32;98909.19;;;9.44;100.00
12801;BME280;6464;42.494;27.470;2023-04-23T06:49:59;98849.03;;;9.56;100.00
12801;BME280;6464;42.494;27.470;2023-04-23T06:52:27;98971.66;;;10.00;100.00
12801;BME280;6464;42.494;27.470;2023-04-23T06:54:54;98953.25;;;9.80;100.00
12801;BME280;6464;42.494;27.470;2023-04-23T06:57:25;98868.91;;;10.02;100.00
12801;BME280;6464;42.494;27.470;2023-04-23T06:59:53;98940.53;;;10.86;100.00
12801;BME280;6464;42.494;27.470;2023-04-23T07:02:20;98836.03;;;10.11;100.00
12801;BME280;6464;42.494;27.470;2023-04-23T07:04:49;98921.91;;;10.34;100.00
12801;BME280;6464;42.494;27.470;2023-04-23T07:07:16;99056.50;;;10.87;100.00
12801;BME280;6464;42.494;27.470;2023-04-23T07:09:45;99065.56;;;11.00;100.00
12801;BME280;6464;42.494;27.470;2023-04-23T07:12:15;98956.97;;;10.36;100.00
12801;BME280;6464;42.494;27.470;2023-04-23T07:14:42;98992.97;;;11.11;100.00
12801;BME280;6464;42.494;27.470;2023-04-23T07:17:09;99017.06;;;11.22;100.00
12801;BME280;6464;42.494;27.470;2023-04-23T07:19:37;98978.03;;;11.28;100.00
12801;BME280;6464;42.494;27.470;2023-04-23T07:22:05;98961.28;;;10.93;100.00
12801;BME280;6464;42.494;27.470;2023-04-23T07:24:32;98984.44;;;10.87;100.00
12801;BME280;6464;42.494;27.470;2023-04-23T07:27:00;99123.19;;;11.83;100.00
12801;BME280;6464;42.494;27.470;2023-04-23T07:29:27;99214.88;;;12.18;100.00
12801;BME280;6464;42.494;27.470;2023-04-23T07:31:54;99194.91;;;11.55;100.00
12801;BME280;6464;42.494;27.470;2023-04-23T07:34:25;99126.22;;;11.57;100.00
12801;BME280;6464;42.494;27.470;2023-04-23T07:36:52;99344.31;;;12.55;100.00
12801;BME280;6464;42.494;27.470;2023-04-23T07:39:22;99368.19;;;12.90;100.00
12801;BME280;6464;42.494;27.470;2023-04-23T07:41:49;99287.56;;;12.26;100.00
12801;BME280;6464;42.494;27.470;2023-04-23T07:44:16;99454.47;;;13.11;100.00
12801;BME280;6464;42.494;27.470;2023-04-23T07:57:26;99734.25;;;13.30;100.00
12801;BME280;6464;42.494;27.470;2023-04-23T07:59:57;99851.00;;;13.65;100.00
12801;BME280;6464;42.494;27.470;2023-04-23T08:02:26;99907.69;;;12.98;100.00
12801;BME280;6464;42.494;27.470;2023-04-23T08:05:00;100023.84;;;13.27;100.00
12801;BME280;6464;42.494;27.470;2023-04-23T08:07:28;100199.97;;;14.47;100.00
12801;BME280;6464;42.494;27.470;2023-04-23T08:09:56;100118.84;;;14.01;100.00
12801;BME280;6464;42.494;27.470;2023-04-23T08:12:30;100357.38;;;15.12;100.00
12801;BME280;6464;42.494;27.470;2023-04-23T08:14:59;100345.75;;;14.52;100.00
12801;BME280;6464;42.494;27.470;2023-04-23T08:17:28;100493.88;;;14.64;100.00
12801;BME280;6464;42.494;27.470;2023-04-23T08:19:57;100735.19;;;14.95;100.00
12801;BME280;6464;42.494;27.470;2023-04-23T08:22:25;100951.72;;;13.90;100.00
12801;BME280;6464;42.494;27.470;2023-04-23T08:24:55;101203.53;;;13.93;100.00
12801;BME280;6464;42.494;27.470;2023-04-23T08:27:24;101261.16;;;14.22;100.00
12801;BME280;6464;42.494;27.470;2023-04-23T08:29:53;101311.66;;;14.18;100.00
12801;BME280;6464;42.494;27.470;2023-04-23T08:32:21;101398.50;;;14.09;100.00
12801;BME280;6464;42.494;27.470;2023-04-23T08:34:49;101529.47;;;14.87;100.00
12801;BME280;6464;42.494;27.470;2023-04-23T08:37:16;101688.66;;;15.74;100.00
12801;BME280;6464;42.494;27.470;2023-04-23T08:39:45;101830.03;;;16.32;100.00
12801;BME280;6464;42.494;27.470;2023-04-23T08:42:23;101881.47;;;16.69;100.00
12801;BME280;6464;42.494;27.470;2023-04-23T08:45:10;101722.19;;;15.80;100.00
12801;BME280;6464;42.494;27.470;2023-04-23T08:47:43;101773.50;;;15.85;100.00
12801;BME280;6464;42.494;27.470;2023-04-23T08:50:16;101760.06;;;15.52;100.00
12801;BME280;6464;42.494;27.470;2023-04-23T08:52:48;101951.09;;;16.91;100.00
12801;BME280;6464;42.494;27.470;2023-04-23T08:55:18;101910.53;;;17.14;100.00
12801;BME280;6464;42.494;27.470;2023-04-23T08:57:47;101860.97;;;16.75;100.00
12801;BME280;6464;42.494;27.470;2023-04-23T09:00:31;101810.03;;;16.51;100.00
12801;BME280;6464;42.494;27.470;2023-04-23T09:03:01;101971.09;;;17.09;100.00
12801;BME280;6464;42.494;27.470;2023-04-23T09:05:30;101971.38;;;17.33;100.00
12801;BME280;6464;42.494;27.470;2023-04-23T09:07:58;101830.28;;;16.92;100.00
12801;BME280;6464;42.494;27.470;2023-04-23T09:10:27;101809.50;;;17.05;100.00
12801;BME280;6464;42.494;27.470;2023-04-23T09:12:55;102019.00;;;18.41;100.00
12801;BME280;6464;42.494;27.470;2023-04-23T09:15:28;101966.41;;;18.43;100.00
12801;BME280;6464;42.494;27.470;2023-04-23T09:17:56;101900.28;;;17.63;100.00
12801;BME280;6464;42.494;27.470;2023-04-23T09:20:25;101958.03;;;18.26;100.00
12801;BME280;6464;42.494;27.470;2023-04-23T09:22:52;102024.09;;;19.07;100.00
12801;BME280;6464;42.494;27.470;2023-04-23T09:25:22;101908.31;;;18.50;100.00
12801;BME280;6464;42.494;27.470;2023-04-23T09:27:51;101971.66;;;20.02;100.00
12801;BME280;6464;42.494;27.470;2023-04-23T09:30:20;102035.38;;;21.71;100.00
12801;BME280;6464;42.494;27.470;2023-04-23T09:32:51;102071.88;;;24.32;100.00
12801;BME280;6464;42.494;27.470;2023-04-23T09:35:18;102155.88;;;25.54;100.00
12801;BME280;6464;42.494;27.470;2023-04-23T09:37:47;102168.06;;;27.07;100.00
12801;BME280;6464;42.494;27.470;2023-04-23T09:40:17;102160.41;;;25.37;100.00
12801;BME280;6464;42.494;27.470;2023-04-23T09:42:47;102177.34;;;27.58;100.00
12801;BME280;6464;42.494;27.470;2023-04-23T09:45:14;102192.72;;;29.01;91.81
12801;BME280;6464;42.494;27.470;2023-04-23T09:47:52;102191.81;;;27.45;90.79
12801;BME280;6464;42.494;27.470;2023-04-23T09:50:19;102128.34;;;25.47;100.00
12801;BME280;6464;42.494;27.470;2023-04-23T09:52:57;102139.38;;;26.19;100.00
12801;BME280;6464;42.494;27.470;2023-04-23T09:55:31;102080.84;;;25.29;100.00
12801;BME280;6464;42.494;27.470;2023-04-23T09:58:00;102095.28;;;26.61;100.00
12801;BME280;6464;42.494;27.470;2023-04-23T10:00:32;102160.78;;;28.28;98.99
12801;BME280;6464;42.494;27.470;2023-04-23T10:03:01;102167.19;;;28.02;91.35
12801;BME280;6464;42.494;27.470;2023-04-23T10:05:28;102142.97;;;27.59;98.46
12801;BME280;6464;42.494;27.470;2023-04-23T10:07:55;102195.50;;;30.08;88.03
12801;BME280;6464;42.494;27.470;2023-04-23T10:10:23;102217.19;;;31.67;79.61
12801;BME280;6464;42.494;27.470;2023-04-23T10:12:51;102224.19;;;31.92;78.01
12801;BME280;6464;42.494;27.470;2023-04-23T10:15:22;102118.97;;;27.13;85.61
12801;BME280;6464;42.494;27.470;2023-04-23T10:17:51;102113.56;;;28.18;100.00
12801;BME280;6464;42.494;27.470;2023-04-23T10:20:21;102118.63;;;29.71;85.82
12801;BME280;6464;42.494;27.470;2023-04-23T10:22:48;102171.53;;;29.78;83.30
12801;BME280;6464;42.494;27.470;2023-04-23T10:25:15;102096.91;;;27.59;100.00
12801;BME280;6464;42.494;27.470;2023-04-23T10:27:46;102150.69;;;30.59;90.15
12801;BME280;6464;42.494;27.470;2023-04-23T10:30:14;102106.13;;;30.60;84.81
12801;BME280;6464;42.494;27.470;2023-04-23T10:32:43;102190.44;;;32.14;77.05
12801;BME280;6464;42.494;27.470;2023-04-23T10:35:10;102139.50;;;30.17;85.65
12801;BME280;6464;42.494;27.470;2023-04-23T10:37:39;102164.22;;;31.37;78.67
12801;BME280;6464;42.494;27.470;2023-04-23T10:40:08;102152.56;;;31.99;79.09
12801;BME280;6464;42.494;27.470;2023-04-23T10:42:38;102161.41;;;31.28;76.95
12801;BME280;6464;42.494;27.470;2023-04-23T10:45:12;102108.47;;;29.73;87.44
12801;BME280;6464;42.494;27.470;2023-04-23T10:47:41;102050.47;;;26.84;100.00
12801;BME280;6464;42.494;27.470;2023-04-23T10:50:20;102062.97;;;28.68;100.00
12801;BME280;6464;42.494;27.470;2023-04-23T10:52:49;102102.41;;;30.50;93.24
12801;BME280;6464;42.494;27.470;2023-04-23T10:55:19;102118.03;;;31.36;85.32
12801;BME280;6464;42.494;27.470;2023-04-23T10:57:57;102138.31;;;32.78;80.42
12801;BME280;6464;42.494;27.470;2023-04-23T11:00:25;102156.09;;;33.43;77.75
12801;BME280;6464;42.494;27.470;2023-04-23T11:02:52;102153.06;;;33.46;76.18
12801;BME280;6464;42.494;27.470;2023-04-23T11:05:20;102155.25;;;32.62;73.99
12801;BME280;6464;42.494;27.470;2023-04-23T11:08:05;102135.75;;;33.56;76.59
12801;BME280;6464;42.494;27.470;2023-04-23T11:10:32;102164.88;;;34.42;72.40
12801;BME280;6464;42.494;27.470;2023-04-23T11:13:19;102176.28;;;34.47;70.16
12801;BME280;6464;42.494;27.470;2023-04-23T11:15:46;102185.03;;;35.25;67.13
12801;BME280;6464;42.494;27.470;2023-04-23T11:18:13;102172.47;;;34.68;64.94
12801;BME280;6464;42.494;27.470;2023-04-23T11:20:40;102164.25;;;34.68;65.01
12801;BME280;6464;42.494;27.470;2023-04-23T11:23:28;102182.47;;;35.95;62.40
12801;BME280;6464;42.494;27.470;2023-04-23T11:25:58;102188.19;;;36.02;60.92
12801;BME280;6464;42.494;27.470;2023-04-23T11:28:26;102177.53;;;35.63;60.51
12801;BME280;6464;42.494;27.470;2023-04-23T11:30:54;102166.16;;;34.85;60.04
12801;BME280;6464;42.494;27.470;2023-04-23T11:33:21;102125.09;;;32.12;63.85
12801;BME280;6464;42.494;27.470;2023-04-23T11:35:48;102068.97;;;29.91;72.13
12801;BME280;6464;42.494;27.470;2023-04-23T11:38:16;102053.41;;;29.93;79.55
12801;BME280;6464;42.494;27.470;2023-04-23T11:40:45;102069.63;;;31.70;72.49
12801;BME280;6464;42.494;27.470;2023-04-23T11:43:17;102110.47;;;32.84;67.65
12801;BME280;6464;42.494;27.470;2023-04-23T11:45:45;102114.56;;;32.59;68.74
12801;BME280;6464;42.494;27.470;2023-04-23T11:48:12;102063.34;;;33.40;66.26
12801;BME280;6464;42.494;27.470;2023-04-23T11:50:40;102141.50;;;33.91;64.13
12801;BME280;6464;42.494;27.470;2023-04-23T11:53:08;102101.75;;;32.29;66.65
12801;BME280;6464;42.494;27.470;2023-04-23T11:55:37;102112.59;;;33.50;65.72
12801;BME280;6464;42.494;27.470;2023-04-23T11:58:08;102142.28;;;35.05;63.29
12801;BME280;6464;42.494;27.470;2023-04-23T12:00:35;102126.50;;;35.52;60.32
12801;BME280;6464;42.494;27.470;2023-04-23T12:03:03;102155.94;;;36.04;60.04
12801;BME280;6464;42.494;27.470;2023-04-23T12:05:32;102164.56;;;36.95;57.45
12801;BME280;6464;42.494;27.470;2023-04-23T12:08:07;102159.56;;;36.57;55.35
12801;BME280;6464;42.494;27.470;2023-04-23T12:10:43;102148.72;;;36.29;54.75
12801;BME280;6464;42.494;27.470;2023-04-23T12:13:14;102143.91;;;35.79;56.78
12801;BME280;6464;42.494;27.470;2023-04-23T12:15:46;102103.34;;;34.74;57.58
12801;BME280;6464;42.494;27.470;2023-04-23T12:18:13;102121.72;;;35.55;58.88
12801;BME280;6464;42.494;27.470;2023-04-23T12:20:40;102071.38;;;35.10;59.12
12801;BME280;6464;42.494;27.470;2023-04-23T12:23:07;102056.13;;;35.08;58.82
12801;BME280;6464;42.494;27.470;2023-04-23T12:25:34;102088.00;;;34.63;59.71
12801;BME280;6464;42.494;27.470;2023-04-23T12:28:03;102096.53;;;35.06;58.60
12801;BME280;6464;42.494;27.470;2023-04-23T12:30:32;102074.75;;;34.76;60.76
12801;BME280;6464;42.494;27.470;2023-04-23T12:33:00;102066.69;;;33.54;61.13
12801;BME280;6464;42.494;27.470;2023-04-23T12:35:39;102028.25;;;32.47;65.80
12801;BME280;6464;42.494;27.470;2023-04-23T12:38:06;102000.84;;;32.78;67.51
12801;BME280;6464;42.494;27.470;2023-04-23T12:40:33;101994.91;;;32.03;66.02
12801;BME280;6464;42.494;27.470;2023-04-23T12:43:00;102034.44;;;33.28;66.43
12801;BME280;6464;42.494;27.470;2023-04-23T12:45:36;102020.72;;;32.80;67.04
12801;BME280;6464;42.494;27.470;2023-04-23T12:48:03;102020.03;;;33.07;67.04
12801;BME280;6464;42.494;27.470;2023-04-23T12:50:30;102026.34;;;33.07;66.94
12801;BME280;6464;42.494;27.470;2023-04-23T12:52:57;102045.81;;;33.53;64.83
12801;BME280;6464;42.494;27.470;2023-04-23T12:55:24;102070.16;;;34.77;61.97
12801;BME280;6464;42.494;27.470;2023-04-23T12:57:51;102069.16;;;34.50;62.68
12801;BME280;6464;42.494;27.470;2023-04-23T13:00:18;102061.66;;;34.53;62.96
12801;BME280;6464;42.494;27.470;2023-04-23T13:02:46;102005.81;;;33.13;63.72
12801;BME280;6464;42.494;27.470;2023-04-23T13:05:13;102017.75;;;32.42;66.66
12801;BME280;6464;42.494;27.470;2023-04-23T13:07:40;101990.97;;;32.27;67.21
12801;BME280;6464;42.494;27.470;2023-04-23T13:10:08;101997.41;;;31.85;68.85
12801;BME280;6464;42.494;27.470;2023-04-23T13:12:36;101987.63;;;31.83;71.31
12801;BME280;6464;42.494;27.470;2023-04-23T13:15:03;101995.97;;;31.91;73.52
12801;BME280;6464;42.494;27.470;2023-04-23T13:17:30;101991.38;;;32.72;73.13
12801;BME280;6464;42.494;27.470;2023-04-23T13:19:58;102022.56;;;33.76;67.97
12801;BME280;6464;42.494;27.470;2023-04-23T13:22:25;102033.41;;;33.39;65.69
12801;BME280;6464;42.494;27.470;2023-04-23T13:24:54;102003.63;;;33.16;68.71
12801;BME280;6464;42.494;27.470;2023-04-23T13:27:24;102018.16;;;33.46;67.03
12801;BME280;6464;42.494;27.470;2023-04-23T13:29:51;101991.41;;;33.11;68.21
12801;BME280;6464;42.494;27.470;2023-04-23T13:32:18;102016.59;;;33.43;68.50
12801;BME280;6464;42.494;27.470;2023-04-23T13:34:45;101992.06;;;32.14;70.10
12801;BME280;6464;42.494;27.470;2023-04-23T13:37:13;101937.91;;;31.48;71.02
12801;BME280;6464;42.494;27.470;2023-04-23T13:39:40;101882.00;;;31.33;71.84
12801;BME280;6464;42.494;27.470;2023-04-23T13:42:07;101966.19;;;31.57;71.94
12801;BME280;6464;42.494;27.470;2023-04-23T13:44:34;101986.69;;;31.72;71.54
12801;BME280;6464;42.494;27.470;2023-04-23T13:47:01;102015.41;;;33.26;68.15
12801;BME280;6464;42.494;27.470;2023-04-23T13:49:28;102016.13;;;33.38;67.26
12801;BME280;6464;42.494;27.470;2023-04-23T13:51:55;102018.13;;;32.88;65.89
12801;BME280;6464;42.494;27.470;2023-04-23T13:54:26;102003.47;;;32.69;68.08
12801;BME280;6464;42.494;27.470;2023-04-23T13:56:54;101998.91;;;33.09;67.33
12801;BME280;6464;42.494;27.470;2023-04-23T13:59:21;101999.47;;;33.32;65.48
12801;BME280;6464;42.494;27.470;2023-04-23T14:01:48;102010.53;;;33.49;66.26
12801;BME280;6464;42.494;27.470;2023-04-23T14:04:15;101986.91;;;32.61;68.28
12801;BME280;6464;42.494;27.470;2023-04-23T14:06:42;101923.59;;;30.61;71.55
12801;BME280;6464;42.494;27.470;2023-04-23T14:09:09;101903.03;;;28.28;86.51
12801;BME280;6464;42.494;27.470;2023-04-23T14:11:38;101878.06;;;27.24;100.00
12801;BME280;6464;42.494;27.470;2023-04-23T14:14:06;101831.38;;;26.55;100.00
12801;BME280;6464;42.494;27.470;2023-04-23T14:16:33;101879.09;;;28.35;100.00
12801;BME280;6464;42.494;27.470;2023-04-23T14:19:00;101878.44;;;28.90;99.30
12801;BME280;6464;42.494;27.470;2023-04-23T14:21:26;101898.47;;;29.92;91.04
12801;BME280;6464;42.494;27.470;2023-04-23T14:24:00;101897.88;;;29.88;90.17
12801;BME280;6464;42.494;27.470;2023-04-23T14:26:32;101888.22;;;28.58;96.63
12801;BME280;6464;42.494;27.470;2023-04-23T14:29:08;101907.97;;;29.98;93.88
12801;BME280;6464;42.494;27.470;2023-04-23T14:31:36;101900.59;;;29.77;93.51
12801;BME280;6464;42.494;27.470;2023-04-23T14:34:04;101915.09;;;30.43;91.64
12801;BME280;6464;42.494;27.470;2023-04-23T14:36:31;101933.19;;;30.77;85.67
12801;BME280;6464;42.494;27.470;2023-04-23T14:38:57;101920.81;;;30.07;86.44
12801;BME280;6464;42.494;27.470;2023-04-23T14:41:29;101923.91;;;29.46;87.29
12801;BME280;6464;42.494;27.470;2023-04-23T14:43:57;101895.53;;;28.68;98.81
12801;BME280;6464;42.494;27.470;2023-04-23T14:46:26;101766.94;;;27.13;100.00
12801;BME280;6464;42.494;27.470;2023-04-23T14:48:53;101871.28;;;27.93;100.00
12801;BME280;6464;42.494;27.470;2023-04-23T14:51:20;101871.50;;;27.65;100.00
12801;BME280;6464;42.494;27.470;2023-04-23T14:53:47;101844.66;;;27.49;100.00
12801;BME280;6464;42.494;27.470;2023-04-23T14:56:14;101830.16;;;27.37;100.00
12801;BME280;6464;42.494;27.470;2023-04-23T14:58:41;101797.88;;;27.34;100.00
12801;BME280;6464;42.494;27.470;2023-04-23T15:01:07;101839.50;;;27.33;100.00
12801;BME280;6464;42.494;27.470;2023-04-23T15:03:36;101761.38;;;26.76;100.00
12801;BME280;6464;42.494;27.470;2023-04-23T15:06:05;101847.03;;;27.54;100.00
12801;BME280;6464;42.494;27.470;2023-04-23T15:08:32;101801.06;;;26.50;100.00
12801;BME280;6464;42.494;27.470;2023-04-23T15:10:59;101792.34;;;26.85;100.00
12801;BME280;6464;42.494;27.470;2023-04-23T15:13:35;101808.75;;;27.09;100.00
12801;BME280;6464;42.494;27.470;2023-04-23T15:16:07;101803.59;;;26.91;100.00
12801;BME280;6464;42.494;27.470;2023-04-23T15:18:36;101829.63;;;27.32;100.00
12801;BME280;6464;42.494;27.470;2023-04-23T15:21:03;101820.84;;;27.16;100.00
12801;BME280;6464;42.494;27.470;2023-04-23T15:23:30;101790.00;;;27.19;100.00
12801;BME280;6464;42.494;27.470;2023-04-23T15:25:57;101765.16;;;27.25;100.00
12801;BME280;6464;42.494;27.470;2023-04-23T15:28:24;101815.59;;;27.77;100.00
12801;BME280;6464;42.494;27.470;2023-04-23T15:30:51;101809.22;;;27.52;100.00
12801;BME280;6464;42.494;27.470;2023-04-23T15:33:18;101830.63;;;27.19;100.00
12801;BME280;6464;42.494;27.470;2023-04-23T15:35:47;101791.00;;;26.25;100.00
12801;BME280;6464;42.494;27.470;2023-04-23T15:38:16;101801.19;;;25.66;100.00
12801;BME280;6464;42.494;27.470;2023-04-23T15:40:43;101757.91;;;24.68;100.00
12801;BME280;6464;42.494;27.470;2023-04-23T15:43:10;101733.13;;;23.22;100.00
12801;BME280;6464;42.494;27.470;2023-04-23T15:45:38;101677.16;;;21.39;100.00
12801;BME280;6464;42.494;27.470;2023-04-23T15:48:05;101613.81;;;20.41;100.00
12801;BME280;6464;42.494;27.470;2023-04-23T15:50:32;101379.53;;;18.91;100.00
12801;BME280;6464;42.494;27.470;2023-04-23T15:53:01;101272.72;;;18.67;100.00
12801;BME280;6464;42.494;27.470;2023-04-23T15:55:28;101143.44;;;17.90;100.00
12801;BME280;6464;42.494;27.470;2023-04-23T15:57:57;101089.16;;;17.47;100.00
12801;BME280;6464;42.494;27.470;2023-04-23T16:00:26;100945.34;;;16.56;100.00
12801;BME280;6464;42.494;27.470;2023-04-23T16:02:54;100980.88;;;17.01;100.00
12801;BME280;6464;42.494;27.470;2023-04-23T16:05:21;100885.84;;;16.35;100.00
12801;BME280;6464;42.494;27.470;2023-04-23T16:07:48;100829.22;;;16.32;100.00
12801;BME280;6464;42.494;27.470;2023-04-23T16:10:17;100884.72;;;17.07;100.00
12801;BME280;6464;42.494;27.470;2023-04-23T16:12:45;100707.16;;;16.02;100.00
12801;BME280;6464;42.494;27.470;2023-04-23T16:15:13;100705.06;;;16.31;100.00
12801;BME280;6464;42.494;27.470;2023-04-23T16:17:40;100464.69;;;14.86;100.00
12801;BME280;6464;42.494;27.470;2023-04-23T16:20:09;100534.91;;;16.07;100.00
12801;BME280;6464;42.494;27.470;2023-04-23T16:22:37;100164.69;;;14.86;100.00
12801;BME280;6464;42.494;27.470;2023-04-23T16:25:05;100104.44;;;15.26;100.00
12801;BME280;6464;42.494;27.470;2023-04-23T16:27:34;100011.31;;;15.29;100.00
12801;BME280;6464;42.494;27.470;2023-04-23T16:30:02;99926.75;;;15.02;100.00
12801;BME280;6464;42.494;27.470;2023-04-23T16:32:30;99922.41;;;15.19;100.00
12801;BME280;6464;42.494;27.470;2023-04-23T16:34:57;99811.03;;;14.26;100.00
12801;BME280;6464;42.494;27.470;2023-04-23T16:37:25;99937.41;;;15.20;100.00
12801;BME280;6464;42.494;27.470;2023-04-23T16:39:52;99983.81;;;15.30;100.00
12801;BME280;6464;42.494;27.470;2023-04-23T16:42:20;99910.22;;;15.14;100.00
12801;BME280;6464;42.494;27.470;2023-04-23T16:44:50;99767.44;;;14.68;100.00
12801;BME280;6464;42.494;27.470;2023-04-23T16:47:17;99743.16;;;14.93;100.00
12801;BME280;6464;42.494;27.470;2023-04-23T16:49:44;99525.59;;;13.73;100.00
12801;BME280;6464;42.494;27.470;2023-04-23T16:52:12;99564.97;;;13.98;100.00
12801;BME280;6464;42.494;27.470;2023-04-23T16:54:39;99436.78;;;13.31;100.00
12801;BME280;6464;42.494;27.470;2023-04-23T16:57:07;99653.19;;;14.71;100.00
12801;BME280;6464;42.494;27.470;2023-04-23T16:59:34;99590.72;;;14.48;100.00
12801;BME280;6464;42.494;27.470;2023-04-23T17:02:03;99614.19;;;14.55;100.00
12801;BME280;6464;42.494;27.470;2023-04-23T17:04:31;99528.03;;;13.95;100.00
12801;BME280;6464;42.494;27.470;2023-04-23T17:06:58;99520.53;;;13.85;100.00
12801;BME280;6464;42.494;27.470;2023-04-23T17:09:26;99622.66;;;14.45;100.00
12801;BME280;6464;42.494;27.470;2023-04-23T17:11:54;99522.22;;;13.52;100.00
12801;BME280;6464;42.494;27.470;2023-04-23T17:14:22;99527.78;;;13.65;100.00
12801;BME280;6464;42.494;27.470;2023-04-23T17:16:50;99496.75;;;13.32;100.00
12801;BME280;6464;42.494;27.470;2023-04-23T17:19:19;99627.75;;;14.14;100.00
12801;BME280;6464;42.494;27.470;2023-04-23T17:21:46;99551.16;;;13.56;100.00
12801;BME280;6464;42.494;27.470;2023-04-23T17:24:14;99460.97;;;12.68;100.00
12801;BME280;6464;42.494;27.470;2023-04-23T17:26:42;99514.09;;;12.82;100.00
12801;BME280;6464;42.494;27.470;2023-04-23T17:29:09;99608.84;;;13.12;100.00
12801;BME280;6464;42.494;27.470;2023-04-23T17:31:40;99643.13;;;13.34;100.00
12801;BME280;6464;42.494;27.470;2023-04-23T17:34:14;99586.09;;;12.89;100.00
12801;BME280;6464;42.494;27.470;2023-04-23T17:36:52;99740.72;;;13.62;100.00
12801;BME280;6464;42.494;27.470;2023-04-23T17:39:29;99729.47;;;13.57;100.00
12801;BME280;6464;42.494;27.470;2023-04-23T17:42:02;99695.13;;;13.55;100.00